Time;durP1;ratioP1;P1;durP2;ratioP2;P2;SDS_P1;SDS_P2;PMS_P1;PMS_P2;Temp;Humidity;BMP_temperature;BMP_pressure;BME280_temperature;BME280_humidity;BME280_pressure;Samples;Min_cycle;Max_cycle;Signal;HPM_P1;HPM_P2
2021/01/21 00:01:07;;;;;;;11.93;6.27;;;6.20;99.90;;;;;;5009423;28;20385;-56
2021/01/21 00:03:33;;;;;;;10.55;6.10;;;6.00;99.90;;;;;;5004870;28;20812;-55
2021/01/21 00:06:00;;;;;;;10.93;6.30;;;5.80;99.90;;;;;;5009263;28;20974;-55
2021/01/21 00:08:26;;;;;;;13.73;7.17;;;6.40;99.90;;;;;;5008308;28;20446;-55
2021/01/21 00:10:52;;;;;;;16.30;7.80;;;5.60;99.90;;;;;;5008769;28;20467;-55
2021/01/21 00:13:18;;;;;;;14.97;8.23;;;5.50;99.90;;;;;;5008562;28;20890;-55
2021/01/21 00:15:43;;;;;;;11.07;6.90;;;3.20;99.90;;;;;;5008493;28;20851;-55
2021/01/21 00:18:09;;;;;;;9.52;6.20;;;7.20;99.90;;;;;;5009183;28;20763;-55
2021/01/21 00:20:34;;;;;;;11.40;6.13;;;5.60;99.90;;;;;;5008734;28;20768;-55
2021/01/21 00:23:00;;;;;;;11.00;5.97;;;5.70;99.90;;;;;;5008531;28;20885;-55
2021/01/21 00:25:26;;;;;;;11.27;5.80;;;5.80;99.90;;;;;;5007953;28;20424;-55
2021/01/21 00:27:51;;;;;;;10.70;6.00;;;5.80;99.90;;;;;;5009166;28;20858;-55
2021/01/21 00:30:18;;;;;;;11.60;5.68;;;6.90;99.90;;;;;;5009256;28;20455;-55
2021/01/21 00:32:43;;;;;;;9.88;5.43;;;5.90;99.90;;;;;;5008487;28;20397;-55
2021/01/21 00:35:12;;;;;;;10.10;5.72;;;5.90;99.90;;;;;;5012805;28;20873;-56
2021/01/21 00:37:37;;;;;;;9.98;4.72;;;5.90;99.90;;;;;;5011698;28;20393;-55
2021/01/21 00:40:04;;;;;;;7.30;4.37;;;5.70;99.90;;;;;;5011769;28;20408;-55
2021/01/21 00:42:29;;;;;;;8.68;4.60;;;5.70;99.90;;;;;;5011989;28;20380;-55
2021/01/21 00:44:55;;;;;;;7.20;3.73;;;5.60;99.90;;;;;;5012914;28;20827;-55
2021/01/21 00:47:21;;;;;;;6.97;4.20;;;5.60;99.90;;;;;;5010704;28;20494;-54
2021/01/21 00:49:46;;;;;;;7.68;4.07;;;5.60;99.90;;;;;;5012724;28;20389;-55
2021/01/21 00:52:12;;;;;;;9.13;4.20;;;5.50;99.90;;;;;;5012305;28;20397;-55
2021/01/21 00:54:38;;;;;;;7.25;3.90;;;5.50;99.90;;;;;;5011490;28;21063;-55
2021/01/21 00:57:03;;;;;;;7.13;3.50;;;5.60;99.90;;;;;;5012875;28;20385;-56
2021/01/21 00:59:29;;;;;;;8.00;4.00;;;5.70;99.90;;;;;;5010714;28;20401;-55
2021/01/21 01:01:55;;;;;;;7.60;3.63;;;5.80;99.90;;;;;;5012584;28;20424;-55
2021/01/21 01:04:21;;;;;;;7.80;3.78;;;5.90;99.90;;;;;;5012247;28;20877;-55
2021/01/21 01:06:47;;;;;;;6.30;3.40;;;6.00;99.90;;;;;;5011305;28;20417;-55
2021/01/21 01:09:12;;;;;;;6.85;2.83;;;6.00;99.90;;;;;;5012445;28;20455;-55
2021/01/21 01:11:38;;;;;;;7.10;3.07;;;6.10;99.90;;;;;;5010337;28;20451;-55
2021/01/21 01:14:03;;;;;;;5.70;2.80;;;6.20;99.90;;;;;;5011359;28;20393;-55
2021/01/21 01:16:29;;;;;;;6.65;2.80;;;6.20;99.90;;;;;;5010264;28;20416;-55
2021/01/21 01:18:55;;;;;;;7.10;3.20;;;6.30;99.90;;;;;;5012016;28;20419;-55
2021/01/21 01:21:20;;;;;;;7.28;3.22;;;6.30;99.90;;;;;;5010915;28;20404;-55
2021/01/21 01:23:46;;;;;;;7.90;3.40;;;6.20;99.90;;;;;;5012768;28;20498;-55
2021/01/21 01:26:11;;;;;;;7.47;3.20;;;6.10;99.90;;;;;;5009160;28;20914;-55
2021/01/21 01:28:40;;;;;;;6.93;3.13;;;6.10;99.90;;;;;;5011112;28;20385;-55
2021/01/21 01:31:05;;;;;;;5.63;2.70;;;6.20;99.90;;;;;;5011492;28;20405;-55
2021/01/21 01:33:31;;;;;;;7.03;2.60;;;6.20;99.90;;;;;;5011682;28;20389;-55
2021/01/21 01:35:56;;;;;;;5.78;2.30;;;6.30;99.90;;;;;;5011772;28;20785;-55
2021/01/21 01:38:22;;;;;;;6.00;2.33;;;6.40;99.90;;;;;;5010603;28;20400;-55
2021/01/21 01:40:52;;;;;;;5.30;2.30;;;6.50;99.90;;;;;;5009738;28;20396;-55
2021/01/21 01:43:18;;;;;;;5.65;2.30;;;6.60;99.90;;;;;;5010553;28;20419;-55
2021/01/21 01:45:43;;;;;;;6.07;2.20;;;6.60;99.90;;;;;;5010531;28;20501;-55
2021/01/21 01:48:09;;;;;;;6.53;2.10;;;6.70;99.90;;;;;;5010451;28;20427;-55
2021/01/21 01:50:36;;;;;;;6.03;2.42;;;6.90;99.90;;;;;;5009758;28;20393;-55
2021/01/21 01:53:01;;;;;;;6.85;2.70;;;7.00;99.90;;;;;;5010483;28;20400;-55
2021/01/21 01:55:27;;;;;;;5.90;2.70;;;7.00;99.90;;;;;;5009924;28;20409;-55
2021/01/21 01:57:54;;;;;;;6.63;2.80;;;6.90;99.90;;;;;;5011479;28;20387;-55
2021/01/21 02:00:21;;;;;;;5.83;2.60;;;6.80;99.90;;;;;;5011089;28;20828;-55
2021/01/21 02:02:51;;;;;;;5.63;2.10;;;6.90;99.90;;;;;;5010914;28;20463;-55
2021/01/21 02:05:18;;;;;;;5.30;1.88;;;7.10;99.90;;;;;;5011159;28;20421;-56
2021/01/21 02:07:44;;;;;;;4.50;1.50;;;7.30;99.90;;;;;;5011029;28;20462;-56
2021/01/21 02:10:12;;;;;;;3.60;1.00;;;7.50;99.90;;;;;;5010753;28;21529;-55
2021/01/21 02:12:40;;;;;;;4.10;1.13;;;7.70;99.90;;;;;;5008559;28;20393;-55
2021/01/21 02:15:37;;;;;;;3.65;1.10;;;7.70;99.90;;;;;;5011284;28;20385;-55
2021/01/21 02:18:20;;;;;;;4.05;1.20;;;7.80;99.90;;;;;;5009437;28;20421;-55
2021/01/21 02:20:46;;;;;;;4.03;1.30;;;8.10;99.90;;;;;;5009543;28;20463;-55
2021/01/21 02:23:44;;;;;;;5.22;1.30;;;8.30;99.90;;;;;;5011307;28;20459;-56
2021/01/21 02:26:15;;;;;;;3.47;0.90;;;8.50;99.90;;;;;;5009278;28;20516;-55
2021/01/21 02:29:14;;;;;;;3.58;1.08;;;8.60;99.80;;;;;;5010262;28;20453;-55
2021/01/21 02:31:50;;;;;;;4.28;1.30;;;8.70;99.70;;;;;;4988558;28;20415;-56
2021/01/21 02:35:00;;;;;;;4.32;1.00;;;8.80;98.50;;;;;;5009858;28;20409;-53
2021/01/21 02:37:28;;;;;;;3.53;0.98;;;9.00;98.30;;;;;;4942730;29;20411;-53
2021/01/21 02:39:57;;;;;;;3.80;1.13;;;9.10;98.10;;;;;;4971215;28;20420;-54
2021/01/21 02:42:22;;;;;;;4.32;1.52;;;9.00;98.40;;;;;;5009596;28;20388;-53
2021/01/21 02:44:48;;;;;;;3.92;1.10;;;9.00;98.30;;;;;;5009778;28;20392;-54
2021/01/21 02:47:16;;;;;;;4.03;1.00;;;9.00;99.20;;;;;;5010455;28;20466;-53
2021/01/21 02:49:42;;;;;;;6.70;1.23;;;9.00;99.30;;;;;;5008985;28;20412;-53
2021/01/21 02:52:32;;;;;;;4.10;1.30;;;8.90;99.80;;;;;;5011327;28;20396;-54
2021/01/21 02:55:35;;;;;;;4.00;1.40;;;8.70;99.90;;;;;;5010701;28;20397;-54
2021/01/21 02:58:13;;;;;;;3.50;1.10;;;8.60;99.90;;;;;;5008547;28;20388;-56
2021/01/21 03:00:40;;;;;;;3.28;0.90;;;8.50;99.90;;;;;;5009751;28;20472;-54
2021/01/21 03:03:14;;;;;;;3.70;1.00;;;8.40;99.90;;;;;;5009313;28;20463;-54
2021/01/21 03:05:42;;;;;;;3.53;0.90;;;8.50;99.90;;;;;;5009830;28;20465;-53
2021/01/21 03:08:08;;;;;;;3.50;0.90;;;8.60;99.60;;;;;;5009228;28;20809;-55
2021/01/21 03:10:34;;;;;;;3.70;1.08;;;8.60;98.90;;;;;;5009972;28;20385;-55
2021/01/21 03:13:00;;;;;;;3.90;1.00;;;8.70;98.50;;;;;;5008768;28;20392;-55
2021/01/21 03:15:26;;;;;;;5.35;1.13;;;8.80;98.10;;;;;;5009733;28;20381;-55
2021/01/21 03:17:52;;;;;;;3.40;0.82;;;8.80;99.10;;;;;;5010637;28;20432;-56
2021/01/21 03:20:18;;;;;;;4.10;1.00;;;8.70;98.20;;;;;;5008971;28;20429;-55
2021/01/21 03:22:44;;;;;;;4.30;1.10;;;8.80;98.30;;;;;;5008218;28;20859;-55
2021/01/21 03:25:10;;;;;;;3.87;1.00;;;8.80;97.90;;;;;;5010354;28;20523;-54
2021/01/21 03:27:36;;;;;;;4.13;0.80;;;8.90;97.70;;;;;;5007769;28;20876;-55
2021/01/21 03:30:07;;;;;;;3.63;0.90;;;8.80;98.20;;;;;;5010095;28;20385;-55
2021/01/21 03:32:33;;;;;;;4.13;0.82;;;8.80;97.80;;;;;;5008450;28;20411;-56
2021/01/21 03:34:59;;;;;;;3.63;1.10;;;8.90;97.30;;;;;;5009884;28;20759;-56
2021/01/21 03:37:24;;;;;;;3.90;0.90;;;8.90;97.30;;;;;;5009856;28;20388;-55
2021/01/21 03:39:50;;;;;;;3.42;0.82;;;8.90;97.20;;;;;;5007748;28;20415;-56
2021/01/21 03:42:16;;;;;;;4.40;1.10;;;8.90;97.20;;;;;;5009936;28;20754;-56
2021/01/21 03:44:41;;;;;;;3.10;1.00;;;9.00;97.40;;;;;;5009288;28;20381;-55
2021/01/21 03:47:07;;;;;;;4.00;1.20;;;9.00;96.80;;;;;;5008624;28;20419;-56
2021/01/21 03:49:36;;;;;;;5.40;1.50;;;9.10;96.90;;;;;;5009260;28;20392;-55
2021/01/21 03:52:01;;;;;;;4.07;0.95;;;9.20;97.10;;;;;;5010271;28;20843;-55
2021/01/21 03:54:28;;;;;;;3.90;1.10;;;9.30;97.10;;;;;;5006291;28;20401;-55
2021/01/21 03:56:54;;;;;;;3.85;1.00;;;9.20;96.90;;;;;;5009531;28;20397;-54
2021/01/21 03:59:20;;;;;;;5.40;1.23;;;9.30;96.10;;;;;;5009584;28;20763;-53
2021/01/21 04:01:46;;;;;;;3.30;0.90;;;9.40;96.00;;;;;;5008903;28;20439;-53
2021/01/21 04:04:12;;;;;;;3.70;1.30;;;9.40;95.20;;;;;;5010117;28;20424;-53
2021/01/21 04:06:38;;;;;;;4.20;1.20;;;9.40;96.00;;;;;;5007910;28;20455;-53
2021/01/21 04:09:04;;;;;;;3.88;1.30;;;9.40;96.40;;;;;;5012504;28;20400;-53
2021/01/21 04:11:30;;;;;;;4.20;1.40;;;9.40;96.00;;;;;;5012233;28;20395;-53
2021/01/21 04:13:55;;;;;;;3.30;0.98;;;9.40;96.20;;;;;;5010521;28;20396;-53
2021/01/21 04:16:21;;;;;;;4.10;1.20;;;9.40;95.00;;;;;;5012764;28;21141;-53
2021/01/21 04:18:46;;;;;;;3.00;0.80;;;9.50;95.60;;;;;;5012126;28;20408;-54
2021/01/21 04:21:13;;;;;;;3.60;1.00;;;9.50;95.90;;;;;;5013732;28;20660;-53
2021/01/21 04:23:39;;;;;;;3.90;0.90;;;9.50;95.50;;;;;;5011310;28;20443;-53
2021/01/21 04:26:04;;;;;;;4.47;1.15;;;9.50;96.60;;;;;;5012690;28;20910;-53
2021/01/21 04:28:30;;;;;;;3.80;1.03;;;9.50;95.90;;;;;;5010495;28;20403;-53
2021/01/21 04:30:58;;;;;;;3.50;1.00;;;9.50;96.50;;;;;;5013377;28;20420;-54
2021/01/21 04:33:23;;;;;;;6.88;1.33;;;11.10;97.00;;;;;;5011393;28;20421;-53
2021/01/21 04:35:50;;;;;;;3.80;1.00;;;9.50;97.00;;;;;;5012427;28;20419;-53
2021/01/21 04:38:16;;;;;;;4.63;1.20;;;9.40;97.20;;;;;;5011624;28;20423;-53
2021/01/21 04:40:42;;;;;;;5.07;1.10;;;9.40;97.50;;;;;;5010158;28;21194;-54
2021/01/21 04:43:08;;;;;;;3.58;1.10;;;9.40;96.30;;;;;;5012032;28;20404;-53
2021/01/21 04:45:35;;;;;;;3.65;1.10;;;9.40;96.00;;;;;;5011498;28;20420;-53
2021/01/21 04:48:00;;;;;;;4.65;1.13;;;9.50;96.40;;;;;;5013272;28;20870;-53
2021/01/21 04:50:27;;;;;;;5.10;1.20;;;9.40;97.20;;;;;;5010545;28;20408;-53
2021/01/21 04:52:55;;;;;;;4.40;1.10;;;9.40;97.00;;;;;;5013115;28;20381;-53
2021/01/21 04:55:25;;;;;;;4.20;1.10;;;9.50;96.50;;;;;;5011934;28;20415;-53
2021/01/21 04:58:29;;;;;;;3.70;0.98;;;9.20;96.80;;;;;;5012019;28;20381;-53
2021/01/21 05:00:56;;;;;;;5.00;1.27;;;9.20;97.00;;;;;;4982154;28;20455;-54
2021/01/21 05:03:22;;;;;;;3.30;0.70;;;9.30;96.70;;;;;;5011012;28;20405;-53
2021/01/21 05:05:48;;;;;;;3.55;1.10;;;9.40;96.70;;;;;;5012418;28;20907;-53
2021/01/21 05:08:15;;;;;;;4.97;1.20;;;9.30;96.70;;;;;;5010681;28;20491;-53
2021/01/21 05:10:40;;;;;;;3.70;0.90;;;9.20;98.50;;;;;;5011628;28;20388;-53
2021/01/21 05:13:06;;;;;;;3.40;1.00;;;9.20;97.00;;;;;;5010593;28;20782;-54
2021/01/21 05:15:32;;;;;;;4.00;1.17;;;9.20;97.50;;;;;;5011041;28;20439;-53
2021/01/21 05:17:58;;;;;;;3.50;0.80;;;9.20;96.80;;;;;;5008702;28;20425;-53
2021/01/21 05:20:24;;;;;;;4.07;1.40;;;9.10;95.60;;;;;;5009885;28;20463;-52
2021/01/21 05:23:00;;;;;;;5.00;1.00;;;9.20;96.30;;;;;;5012278;28;20403;-53
2021/01/21 05:25:26;;;;;;;3.30;1.00;;;9.10;96.50;;;;;;5006264;28;20414;-53
2021/01/21 05:27:54;;;;;;;3.28;0.80;;;9.20;96.80;;;;;;5003998;28;20451;-53
2021/01/21 05:30:20;;;;;;;3.80;1.00;;;9.30;96.70;;;;;;5009442;28;20492;-53
2021/01/21 05:32:47;;;;;;;3.55;0.98;;;9.20;96.70;;;;;;5011279;28;20397;-53
2021/01/21 05:35:16;;;;;;;3.73;1.10;;;9.30;95.80;;;;;;5011045;28;20405;-53
2021/01/21 05:37:45;;;;;;;4.90;1.40;;;9.40;95.50;;;;;;5010191;28;20452;-53
2021/01/21 05:40:11;;;;;;;4.78;0.80;;;9.50;95.00;;;;;;5010870;28;20397;-53
2021/01/21 05:42:37;;;;;;;4.40;0.90;;;9.60;95.60;;;;;;5008812;28;20416;-53
2021/01/21 05:45:05;;;;;;;3.88;1.00;;;9.50;95.60;;;;;;5005953;28;20393;-53
2021/01/21 05:47:30;;;;;;;3.60;0.88;;;9.50;94.90;;;;;;5009723;28;20419;-53
2021/01/21 05:49:56;;;;;;;5.20;0.80;;;9.60;95.50;;;;;;5011896;28;20459;-53
2021/01/21 05:52:22;;;;;;;3.35;0.90;;;9.60;94.30;;;;;;5010364;28;20500;-53
2021/01/21 05:54:50;;;;;;;3.25;0.90;;;9.70;93.80;;;;;;5009861;28;20396;-54
2021/01/21 05:57:16;;;;;;;4.05;0.88;;;9.80;94.50;;;;;;5010509;28;20419;-53
2021/01/21 05:59:43;;;;;;;3.38;0.90;;;9.80;94.20;;;;;;5010354;28;20750;-53
2021/01/21 06:02:09;;;;;;;3.17;0.85;;;9.90;94.00;;;;;;5011935;28;20881;-53
2021/01/21 06:04:36;;;;;;;3.60;1.10;;;9.80;93.90;;;;;;5009209;28;20400;-53
2021/01/21 06:07:02;;;;;;;3.40;1.10;;;9.90;94.40;;;;;;5011617;28;20415;-53
2021/01/21 06:09:30;;;;;;;4.22;0.90;;;9.80;93.60;;;;;;5009492;28;20435;-52
2021/01/21 06:12:03;;;;;;;3.40;0.93;;;9.90;94.30;;;;;;5005443;28;20884;-53
2021/01/21 06:14:29;;;;;;;4.13;1.00;;;9.90;93.50;;;;;;5006741;28;20409;-53
2021/01/21 06:16:55;;;;;;;3.60;0.93;;;10.10;92.70;;;;;;4999825;28;20489;-53
2021/01/21 06:19:21;;;;;;;4.60;0.85;;;10.10;93.30;;;;;;5003671;28;20414;-53
2021/01/21 06:21:53;;;;;;;3.90;0.97;;;10.00;93.00;;;;;;5006663;28;20405;-53
2021/01/21 06:24:24;;;;;;;4.47;1.10;;;10.20;92.90;;;;;;5005021;28;20393;-53
2021/01/21 06:26:51;;;;;;;3.95;1.00;;;10.10;92.80;;;;;;5008630;28;20567;-52
2021/01/21 06:29:18;;;;;;;3.60;0.90;;;10.20;93.00;;;;;;5005245;28;20910;-53
2021/01/21 06:31:48;;;;;;;3.38;0.85;;;10.10;92.70;;;;;;5008453;28;20608;-53
2021/01/21 06:34:35;;;;;;;4.53;1.05;;;10.10;93.00;;;;;;5011366;28;20396;-53
2021/01/21 06:37:06;;;;;;;3.70;1.10;;;10.00;93.20;;;;;;5009774;28;20467;-53
2021/01/21 06:39:46;;;;;;;3.70;0.90;;;10.00;93.00;;;;;;5009812;28;20363;-53
2021/01/21 06:42:16;;;;;;;3.38;1.00;;;9.40;94.20;;;;;;5008505;28;21015;-53
2021/01/21 06:44:43;;;;;;;3.92;0.98;;;9.90;94.30;;;;;;5009747;28;20483;-54
2021/01/21 06:47:09;;;;;;;4.20;1.10;;;9.90;94.40;;;;;;5009165;28;20495;-53
2021/01/21 06:49:36;;;;;;;4.60;1.10;;;9.90;94.20;;;;;;5010348;28;20468;-53
2021/01/21 06:52:03;;;;;;;3.07;0.80;;;9.90;94.40;;;;;;5010855;28;20714;-53
2021/01/21 06:54:30;;;;;;;3.30;1.00;;;9.80;95.30;;;;;;5008333;28;20401;-53
2021/01/21 06:56:56;;;;;;;3.67;1.10;;;9.70;95.60;;;;;;5003473;28;20503;-53
2021/01/21 06:59:53;;;;;;;3.67;1.10;;;9.70;96.10;;;;;;5008768;28;20492;-53
2021/01/21 07:02:48;;;;;;;3.70;1.20;;;9.70;96.50;;;;;;5008696;28;20491;-53
2021/01/21 07:05:25;;;;;;;4.80;1.10;;;9.60;96.50;;;;;;5010079;28;20396;-53
2021/01/21 07:07:56;;;;;;;5.80;1.23;;;9.70;96.60;;;;;;5007348;28;20440;-53
2021/01/21 07:10:29;;;;;;;3.53;0.98;;;9.70;96.60;;;;;;5010213;28;20495;-53
2021/01/21 07:12:56;;;;;;;3.30;0.90;;;9.70;97.40;;;;;;5007866;28;20401;-54
2021/01/21 07:15:35;;;;;;;3.90;0.90;;;9.80;97.70;;;;;;5010290;28;20385;-53
2021/01/21 07:18:05;;;;;;;3.38;0.90;;;9.80;97.60;;;;;;5009930;28;20440;-53
2021/01/21 07:20:35;;;;;;;3.70;1.10;;;9.90;98.00;;;;;;5006478;28;20961;-53
2021/01/21 07:23:05;;;;;;;3.08;0.90;;;9.90;98.20;;;;;;5008501;28;20404;-53
2021/01/21 07:25:31;;;;;;;3.80;1.05;;;9.90;98.80;;;;;;5009166;28;20476;-53
2021/01/21 07:27:57;;;;;;;3.53;1.00;;;9.90;99.30;;;;;;5009798;28;20397;-53
2021/01/21 07:30:26;;;;;;;3.30;0.95;;;9.90;99.90;;;;;;5008712;28;20401;-53
2021/01/21 07:33:23;;;;;;;3.97;1.00;;;9.80;99.90;;;;;;5008871;28;20419;-53
2021/01/21 07:35:52;;;;;;;3.42;0.90;;;9.90;99.90;;;;;;5005972;28;20408;-53
2021/01/21 07:38:56;;;;;;;4.60;0.98;;;9.80;99.90;;;;;;5009403;28;20444;-54
2021/01/21 07:41:45;;;;;;;3.28;0.60;;;9.80;99.90;;;;;;4948331;28;20413;-53
2021/01/21 07:44:10;;;;;;;3.10;0.80;;;9.90;99.90;;;;;;4942904;29;20410;-53
2021/01/21 07:46:36;;;;;;;3.22;0.70;;;9.80;99.90;;;;;;4997062;28;20817;-53
2021/01/21 07:49:28;;;;;;;3.60;0.80;;;9.80;99.90;;;;;;5011275;28;20416;-53
2021/01/21 07:51:59;;;;;;;3.28;0.80;;;9.70;99.90;;;;;;5010699;28;20542;-53
2021/01/21 07:54:26;;;;;;;3.17;0.70;;;9.90;99.90;;;;;;5011980;28;20863;-53
2021/01/21 07:56:52;;;;;;;3.50;0.80;;;10.00;99.90;;;;;;5013658;28;20385;-53
2021/01/21 07:59:17;;;;;;;3.03;0.67;;;10.10;99.90;;;;;;5012168;28;20409;-53
2021/01/21 08:01:59;;;;;;;4.45;0.90;;;10.10;99.90;;;;;;5011828;28;20432;-53
2021/01/21 08:04:25;;;;;;;4.75;0.90;;;10.10;99.90;;;;;;5012780;28;20827;-53
2021/01/21 08:06:55;;;;;;;3.33;0.80;;;10.20;99.90;;;;;;5011532;28;20412;-53
2021/01/21 08:09:21;;;;;;;2.70;0.60;;;10.30;99.90;;;;;;5013343;28;20401;-54
2021/01/21 08:11:48;;;;;;;3.30;0.85;;;10.30;99.90;;;;;;5012140;28;20421;-53
2021/01/21 08:14:16;;;;;;;3.10;0.80;;;10.40;99.90;;;;;;5011671;28;20878;-54
2021/01/21 08:16:41;;;;;;;5.53;0.80;;;10.50;99.90;;;;;;5011833;28;20389;-53
2021/01/21 08:19:07;;;;;;;3.00;0.90;;;11.80;99.90;;;;;;5011818;28;20890;-53
2021/01/21 08:21:33;;;;;;;3.10;0.60;;;10.90;99.90;;;;;;5012427;28;20451;-53
2021/01/21 08:24:09;;;;;;;3.10;0.70;;;10.90;99.90;;;;;;5013513;28;20388;-54
2021/01/21 08:26:36;;;;;;;4.70;0.90;;;11.10;99.90;;;;;;5011154;28;20412;-53
2021/01/21 08:29:07;;;;;;;3.75;0.85;;;11.10;99.90;;;;;;5012089;28;20407;-53
2021/01/21 08:31:39;;;;;;;3.05;0.70;;;11.30;99.90;;;;;;5011579;28;20871;-53
2021/01/21 08:34:08;;;;;;;3.60;0.90;;;11.30;99.90;;;;;;5011527;28;20472;-56
2021/01/21 08:36:35;;;;;;;3.90;0.80;;;12.00;99.90;;;;;;5011910;28;20395;-56
2021/01/21 08:39:02;;;;;;;5.10;1.20;;;13.20;99.90;;;;;;5011747;28;20397;-54
2021/01/21 08:41:29;;;;;;;3.47;0.90;;;14.30;99.90;;;;;;5011253;28;20392;-53
2021/01/21 08:43:59;;;;;;;3.70;0.80;;;15.40;99.90;;;;;;5011281;28;20405;-55
2021/01/21 08:46:26;;;;;;;3.60;0.80;;;15.20;98.30;;;;;;5011548;28;20464;-53
2021/01/21 08:48:51;;;;;;;4.53;0.70;;;14.00;99.30;;;;;;5011378;28;20397;-54
2021/01/21 08:51:35;;;;;;;4.60;1.17;;;14.10;99.10;;;;;;5011104;28;20408;-54
2021/01/21 08:54:18;;;;;;;3.30;1.10;;;14.70;99.20;;;;;;5010256;28;20409;-54
2021/01/21 08:57:02;;;;;;;3.30;0.90;;;15.70;98.50;;;;;;5010221;28;20412;-55
2021/01/21 08:59:29;;;;;;;3.65;0.90;;;16.10;96.30;;;;;;5004211;28;20415;-53
2021/01/21 09:01:55;;;;;;;3.20;0.90;;;15.80;95.70;;;;;;5011409;28;20400;-54
2021/01/21 09:04:23;;;;;;;4.38;1.00;;;16.80;95.20;;;;;;5012582;28;20407;-54
2021/01/21 09:06:51;;;;;;;5.65;0.82;;;17.10;94.70;;;;;;5009342;28;20563;-55
2021/01/21 09:09:33;;;;;;;3.80;0.90;;;17.40;92.80;;;;;;5010858;28;20914;-55
2021/01/21 09:12:14;;;;;;;3.90;0.80;;;17.80;93.00;;;;;;5003669;28;20512;-55
2021/01/21 09:14:41;;;;;;;3.50;0.90;;;17.50;92.30;;;;;;5006866;28;20413;-55
2021/01/21 09:17:16;;;;;;;3.40;0.70;;;17.20;91.80;;;;;;5008146;28;20489;-55
2021/01/21 09:19:44;;;;;;;3.33;0.98;;;17.30;91.80;;;;;;5006463;28;20409;-56
2021/01/21 09:22:15;;;;;;;4.40;0.90;;;17.30;92.20;;;;;;5011431;28;20439;-55
2021/01/21 09:25:02;;;;;;;4.10;0.70;;;16.40;93.50;;;;;;5006292;28;20405;-55
2021/01/21 09:27:30;;;;;;;3.78;0.80;;;14.80;95.50;;;;;;5009718;28;20812;-54
2021/01/21 09:30:02;;;;;;;3.60;0.80;;;14.10;97.60;;;;;;5008096;28;20443;-55
2021/01/21 09:32:31;;;;;;;3.90;0.80;;;13.30;99.90;;;;;;5010689;28;20775;-54
2021/01/21 09:34:56;;;;;;;4.15;0.88;;;12.40;99.90;;;;;;5009935;28;20459;-55
2021/01/21 09:37:23;;;;;;;4.20;0.60;;;13.70;99.90;;;;;;5010514;28;20405;-55
2021/01/21 09:39:49;;;;;;;5.53;2.60;;;14.80;99.30;;;;;;5009565;28;20522;-55
2021/01/21 09:42:16;;;;;;;5.57;1.50;;;15.30;98.70;;;;;;5010675;28;20979;-55
2021/01/21 09:44:42;;;;;;;3.90;1.23;;;15.60;97.60;;;;;;5008238;28;20396;-56
2021/01/21 09:47:08;;;;;;;3.20;1.05;;;15.90;96.10;;;;;;5010857;28;20420;-55
2021/01/21 09:49:33;;;;;;;3.42;1.00;;;15.60;96.90;;;;;;5007051;28;20909;-56
2021/01/21 09:51:59;;;;;;;3.40;1.00;;;16.00;96.20;;;;;;5010887;28;20476;-56
2021/01/21 09:54:25;;;;;;;4.27;1.87;;;15.70;96.20;;;;;;5009233;28;20410;-56
2021/01/21 09:56:52;;;;;;;3.50;1.00;;;15.70;98.00;;;;;;5010205;28;20389;-56
2021/01/21 09:59:19;;;;;;;4.20;1.40;;;15.70;97.50;;;;;;5008753;28;20419;-56
2021/01/21 10:01:46;;;;;;;4.40;1.25;;;16.40;96.70;;;;;;5006579;28;20437;-55
2021/01/21 10:04:11;;;;;;;3.30;0.80;;;16.80;95.40;;;;;;5009379;28;20416;-55
2021/01/21 10:06:37;;;;;;;4.50;1.60;;;16.30;95.50;;;;;;5007502;28;20511;-55
2021/01/21 10:09:03;;;;;;;3.80;1.50;;;15.70;95.50;;;;;;5009965;28;20393;-55
2021/01/21 10:11:28;;;;;;;4.35;2.05;;;17.00;95.10;;;;;;5008507;28;20400;-55
2021/01/21 10:13:54;;;;;;;4.00;1.50;;;17.30;95.30;;;;;;5008008;28;20468;-55
2021/01/21 10:16:19;;;;;;;3.60;1.00;;;16.80;95.60;;;;;;5009030;28;20706;-55
2021/01/21 10:18:45;;;;;;;3.60;1.20;;;16.50;95.90;;;;;;5007412;28;20417;-55
2021/01/21 10:21:11;;;;;;;4.70;2.10;;;16.20;96.10;;;;;;5010567;28;20407;-56
2021/01/21 10:23:36;;;;;;;5.50;2.90;;;16.90;96.70;;;;;;5007543;28;20798;-55
2021/01/21 10:26:02;;;;;;;4.30;1.73;;;16.90;96.30;;;;;;5009202;28;20786;-55
2021/01/21 10:28:28;;;;;;;4.90;1.20;;;17.20;94.80;;;;;;5007581;28;20743;-54
2021/01/21 10:30:53;;;;;;;4.30;0.80;;;16.60;96.00;;;;;;5009542;28;20459;-55
2021/01/21 10:33:19;;;;;;;3.58;0.90;;;14.80;97.20;;;;;;5008351;28;20874;-55
2021/01/21 10:35:45;;;;;;;5.40;0.90;;;14.30;99.90;;;;;;5009075;28;20408;-55
2021/01/21 10:38:10;;;;;;;4.63;0.87;;;15.20;99.90;;;;;;5009091;28;20471;-55
2021/01/21 10:40:36;;;;;;;3.72;1.08;;;15.70;99.10;;;;;;5009968;28;20395;-55
2021/01/21 10:43:02;;;;;;;3.83;0.90;;;15.90;97.50;;;;;;5008278;28;20886;-55
2021/01/21 10:45:28;;;;;;;4.20;1.40;;;15.70;98.30;;;;;;5008390;28;20846;-54
2021/01/21 10:47:53;;;;;;;4.97;1.67;;;15.80;99.10;;;;;;5009506;28;20389;-55
2021/01/21 10:50:19;;;;;;;5.50;2.80;;;15.60;99.20;;;;;;5008438;28;20416;-55
2021/01/21 10:52:44;;;;;;;4.35;2.10;;;15.20;99.90;;;;;;5006147;28;20397;-55
2021/01/21 10:55:11;;;;;;;5.50;2.50;;;14.90;99.90;;;;;;5008935;28;20385;-55
2021/01/21 10:57:36;;;;;;;6.40;2.63;;;15.10;99.90;;;;;;5005336;28;20400;-55
2021/01/21 11:00:04;;;;;;;3.60;1.00;;;15.30;99.90;;;;;;5003523;28;20393;-55
2021/01/21 11:02:29;;;;;;;3.67;1.13;;;15.40;99.90;;;;;;5006621;28;20485;-54
2021/01/21 11:04:55;;;;;;;3.30;0.73;;;15.20;99.90;;;;;;5005823;28;20496;-55
2021/01/21 11:07:21;;;;;;;3.50;1.10;;;14.50;99.90;;;;;;5003354;28;20828;-55
2021/01/21 11:09:46;;;;;;;4.93;1.55;;;14.10;99.90;;;;;;5001326;28;20484;-57
2021/01/21 11:12:15;;;;;;;5.10;2.07;;;13.70;99.90;;;;;;5005164;28;20412;-55
2021/01/21 11:14:40;;;;;;;4.07;1.33;;;13.30;99.90;;;;;;4999524;28;20396;-55
2021/01/21 11:17:06;;;;;;;6.32;2.53;;;13.20;99.90;;;;;;5004506;28;20814;-55
2021/01/21 11:19:32;;;;;;;4.00;1.30;;;13.30;99.90;;;;;;5005129;28;20742;-55
2021/01/21 11:21:57;;;;;;;3.40;1.00;;;13.80;99.90;;;;;;5001815;28;20961;-55
2021/01/21 11:24:23;;;;;;;3.50;1.30;;;13.60;99.90;;;;;;5007528;28;20771;-55
2021/01/21 11:26:48;;;;;;;3.50;0.93;;;13.40;99.90;;;;;;4994456;28;20449;-55
2021/01/21 11:29:14;;;;;;;3.30;0.80;;;13.60;99.90;;;;;;5007123;28;20447;-55
2021/01/21 11:31:40;;;;;;;4.75;0.82;;;13.40;99.90;;;;;;5007612;28;20553;-55
2021/01/21 11:34:06;;;;;;;3.50;0.95;;;13.10;99.90;;;;;;5008599;28;20408;-55
2021/01/21 11:36:31;;;;;;;3.20;0.80;;;12.80;99.90;;;;;;5007268;28;20400;-54
2021/01/21 11:38:57;;;;;;;3.30;0.70;;;12.50;99.90;;;;;;5008888;28;20380;-55
2021/01/21 11:41:22;;;;;;;3.65;1.10;;;12.60;99.90;;;;;;5007375;28;20480;-55
2021/01/21 11:43:48;;;;;;;3.73;1.03;;;12.70;99.90;;;;;;5006766;28;20755;-55
2021/01/21 11:46:14;;;;;;;3.85;1.23;;;12.80;99.90;;;;;;5008768;28;20416;-55
2021/01/21 11:48:39;;;;;;;5.30;2.13;;;12.90;99.90;;;;;;5008256;28;20478;-55
2021/01/21 11:51:05;;;;;;;4.18;1.85;;;13.20;99.90;;;;;;5005275;28;20510;-54
2021/01/21 11:53:31;;;;;;;3.90;1.90;;;13.40;99.90;;;;;;5008837;28;20385;-54
2021/01/21 11:55:57;;;;;;;3.73;1.20;;;13.50;99.90;;;;;;5007086;28;20431;-55
2021/01/21 11:58:22;;;;;;;4.53;1.50;;;13.30;99.90;;;;;;5009438;28;20748;-55
2021/01/21 12:00:48;;;;;;;4.63;1.40;;;13.10;99.90;;;;;;5006421;28;20448;-55
2021/01/21 12:03:14;;;;;;;4.20;2.35;;;13.10;99.90;;;;;;5008536;28;20782;-55
2021/01/21 12:05:40;;;;;;;4.90;1.90;;;13.30;99.90;;;;;;5007306;28;20669;-55
2021/01/21 12:08:06;;;;;;;3.15;1.13;;;13.20;99.90;;;;;;5006047;28;20415;-56
2021/01/21 12:10:31;;;;;;;8.60;3.90;;;12.80;99.90;;;;;;5008019;28;20396;-54
2021/01/21 12:12:57;;;;;;;5.20;1.92;;;12.70;99.90;;;;;;5008726;28;20389;-55
2021/01/21 12:15:23;;;;;;;4.95;1.88;;;12.60;99.90;;;;;;5008054;28;20483;-55
2021/01/21 12:17:48;;;;;;;5.30;2.70;;;12.60;99.90;;;;;;5008222;28;20408;-55
2021/01/21 12:20:14;;;;;;;4.20;1.20;;;12.80;99.90;;;;;;5007980;28;20389;-55
2021/01/21 12:22:43;;;;;;;3.00;0.60;;;12.90;99.90;;;;;;5008104;28;20863;-55
2021/01/21 12:25:09;;;;;;;4.72;0.90;;;12.80;99.90;;;;;;5007972;28;20496;-55
2021/01/21 12:27:36;;;;;;;3.10;0.82;;;12.90;99.90;;;;;;5008851;28;20878;-54
2021/01/21 12:30:01;;;;;;;3.85;0.90;;;12.80;99.90;;;;;;5011901;28;20430;-55
2021/01/21 12:32:27;;;;;;;5.00;1.00;;;12.90;99.90;;;;;;5012741;28;20412;-55
2021/01/21 12:34:53;;;;;;;5.50;1.20;;;12.90;99.90;;;;;;5012122;28;20395;-55
2021/01/21 12:37:18;;;;;;;3.00;0.70;;;12.90;99.90;;;;;;5012380;28;20520;-55
2021/01/21 12:39:44;;;;;;;5.37;1.20;;;13.00;99.90;;;;;;5011448;28;20476;-55
2021/01/21 12:42:10;;;;;;;4.40;0.90;;;13.10;99.90;;;;;;5011337;28;20420;-55
2021/01/21 12:44:36;;;;;;;2.92;0.60;;;13.20;99.90;;;;;;5012008;28;20750;-54
2021/01/21 12:47:01;;;;;;;3.00;0.70;;;13.30;99.90;;;;;;5011498;28;20416;-55
2021/01/21 12:49:27;;;;;;;3.30;0.95;;;13.30;99.90;;;;;;5012492;28;20395;-55
2021/01/21 12:51:53;;;;;;;4.40;0.90;;;13.10;99.90;;;;;;5012470;28;20472;-55
2021/01/21 12:54:18;;;;;;;3.60;1.00;;;12.90;99.90;;;;;;5011096;28;20401;-55
2021/01/21 12:56:44;;;;;;;3.80;1.20;;;13.10;99.90;;;;;;5011362;28;20428;-56
2021/01/21 12:59:10;;;;;;;3.25;0.82;;;13.10;99.90;;;;;;5011208;28;20900;-55